createdAt,value
2019-03-26T00:00:09.034Z,41.10
2019-03-26T00:02:36.559Z,39.42
2019-03-26T00:05:04.101Z,40.92
2019-03-26T00:07:31.184Z,39.98
2019-03-26T00:09:58.782Z,38.10
2019-03-26T00:12:25.654Z,37.40
2019-03-26T00:14:52.500Z,38.42
2019-03-26T00:17:19.501Z,38.92
2019-03-26T00:19:46.458Z,43.25
2019-03-26T00:22:13.301Z,41.23
2019-03-26T00:24:40.202Z,36.77
2019-03-26T00:27:08.043Z,39.35
2019-03-26T00:29:35.098Z,39.83
2019-03-26T00:32:02.000Z,43.28
2019-03-26T00:34:28.892Z,40.60
2019-03-26T00:36:56.159Z,40.40
2019-03-26T00:39:23.141Z,39.65
2019-03-26T00:41:50.382Z,41.50
2019-03-26T00:44:17.325Z,40.33
2019-03-26T00:46:44.416Z,49.58
2019-03-26T00:49:11.286Z,38.20
2019-03-26T00:51:38.147Z,43.10
2019-03-26T00:54:05.072Z,39.40
2019-03-26T00:56:31.914Z,41.08
2019-03-26T00:58:58.775Z,37.63
2019-03-26T01:01:25.704Z,46.20
2019-03-26T01:03:55.036Z,45.10
2019-03-26T01:06:21.748Z,45.70
2019-03-26T01:08:48.714Z,45.80
2019-03-26T01:11:15.844Z,46.10
2019-03-26T01:13:42.785Z,45.50
2019-03-26T01:16:09.666Z,44.90
2019-03-26T01:18:36.531Z,41.70
2019-03-26T01:21:03.268Z,44.05
2019-03-26T01:23:30.996Z,45.03
2019-03-26T01:25:57.852Z,48.13
2019-03-26T01:28:24.749Z,41.25
2019-03-26T01:30:51.798Z,43.48
2019-03-26T01:33:18.660Z,43.33
2019-03-26T01:35:45.576Z,47.98
2019-03-26T01:38:12.492Z,52.65
2019-03-26T01:40:39.422Z,47.13
2019-03-26T01:43:06.441Z,47.73
2019-03-26T01:45:33.345Z,47.05
2019-03-26T01:48:00.081Z,45.38
2019-03-26T01:50:29.463Z,48.80
2019-03-26T01:52:58.205Z,52.75
2019-03-26T01:55:25.417Z,51.98
2019-03-26T01:57:52.386Z,48.08
2019-03-26T02:00:19.273Z,48.25
2019-03-26T02:02:46.692Z,50.80
2019-03-26T02:05:14.597Z,50.17
2019-03-26T02:07:41.648Z,53.40
2019-03-26T02:10:08.475Z,50.08
2019-03-26T02:12:35.791Z,48.75
2019-03-26T02:15:05.087Z,50.88
2019-03-26T02:17:32.147Z,52.15
2019-03-26T02:19:58.969Z,54.20
2019-03-26T02:22:25.928Z,49.42
2019-03-26T02:24:53.111Z,52.23
2019-03-26T02:27:19.985Z,52.50
2019-03-26T02:29:46.902Z,52.35
2019-03-26T02:32:13.795Z,55.10
2019-03-26T02:34:40.664Z,54.70
2019-03-26T02:37:07.658Z,53.63
2019-03-26T02:39:34.403Z,56.25
2019-03-26T02:42:01.258Z,54.95
2019-03-26T02:44:28.232Z,53.52
2019-03-26T02:46:55.314Z,53.15
2019-03-26T02:49:22.152Z,48.92
2019-03-26T02:51:49.101Z,51.28
2019-03-26T02:54:16.041Z,49.03
2019-03-26T02:56:43.621Z,46.40
2019-03-26T02:59:10.443Z,48.33
2019-03-26T03:01:37.290Z,56.30
2019-03-26T03:04:04.220Z,48.75
2019-03-26T03:06:31.472Z,50.43
2019-03-26T03:08:58.623Z,54.27
2019-03-26T03:11:26.263Z,52.55
2019-03-26T03:13:53.194Z,48.73
2019-03-26T03:16:20.427Z,45.90
2019-03-26T03:18:47.216Z,49.40
2019-03-26T03:21:14.101Z,46.92
2019-03-26T03:23:41.458Z,48.83
2019-03-26T03:26:08.282Z,45.67
2019-03-26T03:28:36.079Z,48.38
2019-03-26T03:31:03.291Z,45.58
2019-03-26T03:33:32.106Z,44.77
2019-03-26T03:35:59.062Z,46.50
2019-03-26T03:38:25.931Z,47.40
2019-03-26T03:40:52.930Z,40.52
2019-03-26T03:43:20.992Z,40.10
2019-03-26T03:45:47.805Z,40.65
2019-03-26T03:48:14.700Z,42.65
2019-03-26T03:50:41.464Z,44.15
2019-03-26T03:53:08.337Z,40.98
2019-03-26T03:55:35.534Z,42.03
2019-03-26T03:58:02.829Z,40.83
2019-03-26T04:00:34.160Z,37.70
2019-03-26T04:03:02.453Z,44.70
2019-03-26T04:05:29.386Z,39.92
2019-03-26T04:07:56.419Z,40.85
2019-03-26T04:10:23.266Z,40.95
2019-03-26T04:12:50.212Z,44.70
2019-03-26T04:15:17.177Z,44.95
2019-03-26T04:17:43.991Z,42.48
2019-03-26T04:20:10.883Z,40.73
2019-03-26T04:22:37.754Z,44.35
2019-03-26T04:25:04.646Z,42.95
2019-03-26T04:27:31.639Z,41.77
2019-03-26T04:29:58.546Z,44.45
2019-03-26T04:32:25.471Z,43.23
2019-03-26T04:34:52.345Z,43.52
2019-03-26T04:37:19.324Z,43.87
2019-03-26T04:39:46.213Z,39.53
2019-03-26T04:42:13.120Z,44.70
2019-03-26T04:44:40.063Z,45.43
2019-03-26T04:47:07.041Z,42.55
2019-03-26T04:49:33.862Z,42.05
2019-03-26T04:52:00.730Z,46.60
2019-03-26T04:54:27.575Z,43.90
2019-03-26T04:56:54.415Z,44.08
2019-03-26T04:59:21.406Z,44.15
2019-03-26T05:01:48.274Z,42.80
2019-03-26T05:04:15.150Z,46.25
2019-03-26T05:06:41.966Z,50.15
2019-03-26T05:09:08.882Z,45.50
2019-03-26T05:11:35.853Z,44.10
2019-03-26T05:14:03.082Z,48.55
2019-03-26T05:16:30.065Z,43.70
2019-03-26T05:18:57.102Z,43.78
2019-03-26T05:21:23.928Z,42.62
2019-03-26T05:23:52.060Z,44.63
2019-03-26T05:26:19.073Z,45.58
2019-03-26T05:28:45.932Z,43.08
2019-03-26T05:31:12.813Z,41.98
2019-03-26T05:33:39.763Z,39.42
2019-03-26T05:36:06.580Z,40.00
2019-03-26T05:38:33.520Z,42.23
2019-03-26T05:41:00.329Z,35.65
2019-03-26T05:43:27.197Z,36.63
2019-03-26T05:45:55.295Z,39.33
2019-03-26T05:48:23.339Z,38.40
2019-03-26T05:50:50.262Z,38.83
2019-03-26T05:53:17.154Z,35.50
2019-03-26T05:55:44.020Z,37.42
2019-03-26T05:58:11.036Z,37.80
2019-03-26T06:00:37.961Z,36.40
2019-03-26T06:03:04.806Z,37.80
2019-03-26T06:05:31.667Z,34.65
2019-03-26T06:07:58.750Z,35.00
2019-03-26T06:10:25.619Z,34.27
2019-03-26T06:12:52.491Z,39.20
2019-03-26T06:15:19.334Z,36.68
2019-03-26T06:17:46.180Z,41.40
2019-03-26T06:20:13.025Z,41.98
2019-03-26T06:22:40.225Z,40.75
2019-03-26T06:25:07.055Z,42.45
2019-03-26T06:27:34.986Z,43.50
2019-03-26T06:30:01.939Z,38.95
2019-03-26T06:32:29.205Z,41.95
2019-03-26T06:34:56.037Z,37.25
2019-03-26T06:37:22.864Z,38.42
2019-03-26T06:39:52.273Z,43.48
2019-03-26T06:42:19.397Z,45.15
2019-03-26T06:44:46.363Z,46.35
2019-03-26T06:47:13.188Z,46.75
2019-03-26T06:49:40.128Z,48.17
2019-03-26T06:52:06.921Z,44.35
2019-03-26T06:54:33.780Z,42.95
2019-03-26T06:57:00.631Z,45.17
2019-03-26T06:59:27.446Z,44.13
2019-03-26T07:01:54.945Z,41.33
2019-03-26T07:04:21.800Z,43.95
2019-03-26T07:06:48.778Z,43.02
2019-03-26T07:09:15.599Z,43.30
2019-03-26T07:11:42.460Z,43.63
2019-03-26T07:14:09.306Z,42.75
2019-03-26T07:16:36.207Z,56.53
2019-03-26T07:19:04.460Z,38.83
2019-03-26T07:21:31.578Z,42.73
2019-03-26T07:23:58.599Z,39.15
2019-03-26T07:26:25.510Z,42.73
2019-03-26T07:28:52.532Z,38.35
2019-03-26T07:31:19.349Z,39.23
2019-03-26T07:33:46.237Z,36.13
2019-03-26T07:36:13.178Z,36.75
2019-03-26T07:38:40.031Z,35.63
2019-03-26T07:41:06.912Z,38.30
2019-03-26T07:43:34.016Z,31.07
2019-03-26T07:46:01.065Z,30.95
2019-03-26T07:48:27.951Z,31.15
2019-03-26T07:50:54.827Z,24.35
2019-03-26T07:53:21.748Z,26.27
2019-03-26T07:55:48.867Z,26.95
2019-03-26T07:58:15.959Z,32.58
2019-03-26T08:00:42.836Z,27.82
2019-03-26T08:03:09.692Z,30.60
2019-03-26T08:05:36.495Z,26.65
2019-03-26T08:08:03.910Z,28.52
2019-03-26T08:10:30.787Z,23.70
2019-03-26T08:12:57.649Z,26.87
2019-03-26T08:15:24.560Z,25.20
2019-03-26T08:17:53.846Z,21.10
2019-03-26T08:20:21.130Z,16.23
2019-03-26T08:22:47.958Z,18.75
2019-03-26T08:25:14.820Z,21.55
2019-03-26T08:27:41.660Z,18.75
2019-03-26T08:30:08.644Z,17.55
2019-03-26T08:32:37.025Z,24.80
2019-03-26T08:35:04.577Z,21.48
2019-03-26T08:37:31.510Z,18.52
2019-03-26T08:39:58.403Z,21.60
2019-03-26T08:42:25.312Z,14.43
2019-03-26T08:44:52.234Z,13.75
2019-03-26T08:47:19.180Z,13.40
2019-03-26T08:49:46.102Z,14.35
2019-03-26T08:52:12.862Z,12.23
2019-03-26T08:54:39.758Z,8.83
2019-03-26T08:57:06.820Z,13.45
2019-03-26T08:59:33.888Z,10.88
2019-03-26T09:02:01.289Z,8.25
2019-03-26T09:04:28.149Z,7.03
2019-03-26T09:06:55.076Z,10.95
2019-03-26T09:09:22.011Z,10.18
2019-03-26T09:11:49.449Z,9.63
2019-03-26T09:14:16.947Z,8.03
2019-03-26T09:16:43.879Z,9.63
2019-03-26T09:19:10.791Z,8.60
2019-03-26T09:21:37.624Z,8.13
2019-03-26T09:24:04.627Z,7.80
2019-03-26T09:26:31.675Z,11.03
2019-03-26T09:28:58.511Z,10.50
2019-03-26T09:31:25.446Z,9.50
2019-03-26T09:33:54.964Z,10.93
2019-03-26T09:36:21.836Z,8.55
2019-03-26T09:38:48.706Z,9.83
2019-03-26T09:41:15.699Z,9.30
2019-03-26T09:43:42.559Z,11.68
2019-03-26T09:46:11.639Z,17.80
2019-03-26T09:48:38.461Z,13.43
2019-03-26T09:51:05.577Z,13.83
2019-03-26T09:53:32.349Z,12.68
2019-03-26T09:55:59.174Z,14.78
2019-03-26T09:58:26.415Z,15.20
2019-03-26T10:00:53.247Z,10.98
2019-03-26T10:03:22.558Z,16.77
2019-03-26T10:05:49.455Z,11.73
2019-03-26T10:08:18.023Z,10.72
2019-03-26T10:10:45.113Z,11.12
2019-03-26T10:13:12.071Z,12.30
2019-03-26T10:15:39.018Z,9.80
2019-03-26T10:18:05.951Z,11.65
2019-03-26T10:20:33.252Z,11.63
2019-03-26T10:23:00.324Z,11.05
2019-03-26T10:25:27.340Z,10.82
2019-03-26T10:27:54.252Z,13.25
2019-03-26T10:30:36.289Z,18.67
2019-03-26T10:33:03.485Z,18.07
2019-03-26T10:35:30.589Z,21.90
2019-03-26T10:37:57.655Z,20.00
2019-03-26T10:40:32.283Z,20.35
2019-03-26T10:42:59.816Z,19.60
2019-03-26T10:45:26.758Z,28.95
2019-03-26T10:47:53.698Z,14.98
2019-03-26T10:50:20.720Z,15.63
2019-03-26T10:52:47.665Z,16.82
2019-03-26T10:55:14.550Z,17.37
2019-03-26T10:57:41.619Z,17.37
2019-03-26T11:00:09.032Z,15.80
2019-03-26T11:02:36.005Z,14.23
2019-03-26T11:05:04.649Z,14.03
2019-03-26T11:07:31.621Z,15.58
2019-03-26T11:09:59.115Z,15.00
2019-03-26T11:12:26.110Z,17.12
2019-03-26T11:14:53.299Z,13.95
2019-03-26T11:17:20.316Z,14.55
2019-03-26T11:19:47.141Z,13.98
2019-03-26T11:22:14.393Z,13.70
2019-03-26T11:24:41.627Z,12.58
2019-03-26T11:27:08.732Z,12.45
2019-03-26T11:29:35.616Z,16.50
2019-03-26T11:32:02.502Z,13.40
2019-03-26T11:34:29.427Z,10.50
2019-03-26T11:36:56.371Z,14.63
2019-03-26T11:39:32.582Z,13.08
2019-03-26T11:41:52.285Z,15.23
2019-03-26T11:44:19.166Z,16.02
2019-03-26T11:46:46.104Z,12.80
2019-03-26T11:49:12.958Z,14.70
2019-03-26T11:51:39.910Z,12.35
2019-03-26T11:54:06.773Z,14.35
2019-03-26T11:56:33.705Z,13.62
2019-03-26T11:59:00.732Z,19.92
2019-03-26T12:01:27.584Z,13.50
2019-03-26T12:03:54.458Z,15.23
2019-03-26T12:06:21.378Z,12.98
2019-03-26T12:08:48.607Z,12.95
2019-03-26T12:11:15.515Z,12.07
2019-03-26T12:13:42.502Z,16.12
2019-03-26T12:16:09.382Z,15.03
2019-03-26T12:18:36.385Z,10.05
2019-03-26T12:21:03.874Z,12.10
2019-03-26T12:23:30.823Z,15.00
2019-03-26T12:25:57.737Z,12.50
2019-03-26T12:28:24.584Z,12.33
2019-03-26T12:30:51.524Z,12.37
2019-03-26T12:33:18.354Z,15.75
2019-03-26T12:35:45.479Z,14.55
2019-03-26T12:38:18.510Z,10.63
2019-03-26T12:40:45.633Z,11.35
2019-03-26T12:43:12.657Z,12.80
2019-03-26T12:45:39.602Z,13.32
2019-03-26T12:48:06.432Z,11.03
2019-03-26T12:50:33.386Z,14.50
